sensor_id;sensor_type;location;lat;lon;timestamp;P1;P2;P0
53698;PMS7003;68408;53.952;27.612;2023-03-21T00:04:09;30.1;24;17.7
53698;PMS7003;68408;53.952;27.612;2023-03-21T00:08:41;29.6;24.4;17.3
53698;PMS7003;68408;53.952;27.612;2023-03-21T00:13:53;28.1;22.7;16.4
53698;PMS7003;68408;53.952;27.612;2023-03-21T00:19:13;29.3;24.6;18.1
53698;PMS7003;68408;53.952;27.612;2023-03-21T00:24:27;32.3;25.7;18.7
53698;PMS7003;68408;53.952;27.612;2023-03-21T00:28:55;31.1;25.3;17.5
53698;PMS7003;68408;53.952;27.612;2023-03-21T00:34:11;26.1;21.8;14.8
53698;PMS7003;68408;53.952;27.612;2023-03-21T00:39:13;33.9;27.8;19.6
53698;PMS7003;68408;53.952;27.612;2023-03-21T00:44:09;30.7;25.2;18.4
53698;PMS7003;68408;53.952;27.612;2023-03-21T00:48:57;32.8;25.7;18.4
53698;PMS7003;68408;53.952;27.612;2023-03-21T00:53:55;32.5;27.1;19.9
53698;PMS7003;68408;53.952;27.612;2023-03-21T00:59:25;31;24.7;18
53698;PMS7003;68408;53.952;27.612;2023-03-21T01:04:25;31;26;18.5
53698;PMS7003;68408;53.952;27.612;2023-03-21T01:08:49;31.2;25.7;17.7
53698;PMS7003;68408;53.952;27.612;2023-03-21T01:14:25;32.5;26.5;18.3
53698;PMS7003;68408;53.952;27.612;2023-03-21T01:18:53;34.2;26.7;19.3
53698;PMS7003;68408;53.952;27.612;2023-03-21T01:23:59;31.4;26.2;19.5
53698;PMS7003;68408;53.952;27.612;2023-03-21T01:29:07;31.1;27;19.5
53698;PMS7003;68408;53.952;27.612;2023-03-21T01:34:25;33.6;29.4;21
53698;PMS7003;68408;53.952;27.612;2023-03-21T01:38:41;34.1;28;20.4
53698;PMS7003;68408;53.952;27.612;2023-03-21T01:44:25;34.5;29.4;19.6
53698;PMS7003;68408;53.952;27.612;2023-03-21T01:49:26;35.6;28.2;20.1
53698;PMS7003;68408;53.952;27.612;2023-03-21T01:53:32;34.8;29.5;21
53698;PMS7003;68408;53.952;27.612;2023-03-21T01:58:47;35.4;29.3;20.6
53698;PMS7003;68408;53.952;27.612;2023-03-21T02:04:07;36.3;30.7;21.6
53698;PMS7003;68408;53.952;27.612;2023-03-21T02:09:10;35.5;29.5;20.3
53698;PMS7003;68408;53.952;27.612;2023-03-21T02:14:12;36;30.1;20.7
53698;PMS7003;68408;53.952;27.612;2023-03-21T02:18:32;35.7;30;21.1
53698;PMS7003;68408;53.952;27.612;2023-03-21T02:24:37;36.7;28.9;20.6
53698;PMS7003;68408;53.952;27.612;2023-03-21T02:29:15;38.9;31.5;22.1
53698;PMS7003;68408;53.952;27.612;2023-03-21T02:33:40;35.9;30.6;21.4
53698;PMS7003;68408;53.952;27.612;2023-03-21T02:38:45;40.8;32.9;22.6
53698;PMS7003;68408;53.952;27.612;2023-03-21T02:44:25;37.5;31.9;21.9
53698;PMS7003;68408;53.952;27.612;2023-03-21T02:48:33;36.2;30.6;21.3
53698;PMS7003;68408;53.952;27.612;2023-03-21T02:54:08;36.6;30.8;21.8
53698;PMS7003;68408;53.952;27.612;2023-03-21T02:59:07;38;31.2;21.7
53698;PMS7003;68408;53.952;27.612;2023-03-21T03:03:41;35.7;28.6;19.4
53698;PMS7003;68408;53.952;27.612;2023-03-21T03:09:14;39.9;31.9;22.1
53698;PMS7003;68408;53.952;27.612;2023-03-21T03:13:46;38;31.9;22.2
53698;PMS7003;68408;53.952;27.612;2023-03-21T03:18:52;39.7;33.2;22.2
53698;PMS7003;68408;53.952;27.612;2023-03-21T03:24:13;41.9;33.7;22.7
53698;PMS7003;68408;53.952;27.612;2023-03-21T03:29:26;40.4;32.6;21.8
53698;PMS7003;68408;53.952;27.612;2023-03-21T03:33:31;40.1;32.3;22.6
53698;PMS7003;68408;53.952;27.612;2023-03-21T03:39:12;41;33.3;22.7
53698;PMS7003;68408;53.952;27.612;2023-03-21T03:43:56;39.7;32;22.6
53698;PMS7003;68408;53.952;27.612;2023-03-21T03:49:08;41.4;33.4;22.9
53698;PMS7003;68408;53.952;27.612;2023-03-21T03:54:11;39.9;31.6;22.1
53698;PMS7003;68408;53.952;27.612;2023-03-21T03:58:43;40.6;32.6;22.5
53698;PMS7003;68408;53.952;27.612;2023-03-21T04:04:23;43.3;34.8;23.6
53698;PMS7003;68408;53.952;27.612;2023-03-21T04:09:25;44;34.4;23.1
53698;PMS7003;68408;53.952;27.612;2023-03-21T04:13:41;46.8;35.8;24
53698;PMS7003;68408;53.952;27.612;2023-03-21T04:19:07;45.6;35.2;23.1
53698;PMS7003;68408;53.952;27.612;2023-03-21T04:24:11;42.6;34;23
53698;PMS7003;68408;53.952;27.612;2023-03-21T04:28:31;42.9;34.8;23.4
53698;PMS7003;68408;53.952;27.612;2023-03-21T04:33:51;44;34.3;23.2
53698;PMS7003;68408;53.952;27.612;2023-03-21T04:39:23;41.3;33.6;23.1
53698;PMS7003;68408;53.952;27.612;2023-03-21T04:43:31;43;34.8;23.4
53698;PMS7003;68408;53.952;27.612;2023-03-21T04:49:07;43.2;34.2;23.4
53698;PMS7003;68408;53.952;27.612;2023-03-21T04:54:25;44.2;34.8;23.3
53698;PMS7003;68408;53.952;27.612;2023-03-21T04:58:39;44.9;36.4;24.3
53698;PMS7003;68408;53.952;27.612;2023-03-21T05:03:39;43.8;33.6;21.5
53698;PMS7003;68408;53.952;27.612;2023-03-21T05:08:56;42.2;34.2;22.8
53698;PMS7003;68408;53.952;27.612;2023-03-21T05:14:13;39.9;33.2;22.4
53698;PMS7003;68408;53.952;27.612;2023-03-21T05:19:13;34.5;28.5;19.8
53698;PMS7003;68408;53.952;27.612;2023-03-21T05:23:55;39.6;32;22.3
53698;PMS7003;68408;53.952;27.612;2023-03-21T05:29:29;37.3;29.8;20.5
53698;PMS7003;68408;53.952;27.612;2023-03-21T05:34:11;32.1;26.5;18.1
53698;PMS7003;68408;53.952;27.612;2023-03-21T05:39:11;34;28.1;19.9
53698;PMS7003;68408;53.952;27.612;2023-03-21T05:43:41;34.5;28.6;20
53698;PMS7003;68408;53.952;27.612;2023-03-21T05:49:25;32.9;26.1;18
53698;PMS7003;68408;53.952;27.612;2023-03-21T05:53:31;30.2;25.6;18.2
53698;PMS7003;68408;53.952;27.612;2023-03-21T05:58:51;29.4;24.4;17.4
53698;PMS7003;68408;53.952;27.612;2023-03-21T06:04:05;26.2;22.4;16.4
53698;PMS7003;68408;53.952;27.612;2023-03-21T06:08:39;25.6;21.2;15.8
53698;PMS7003;68408;53.952;27.612;2023-03-21T06:13:57;26.4;21.6;15.4
53698;PMS7003;68408;53.952;27.612;2023-03-21T06:19:05;20.9;17.2;12.8
53698;PMS7003;68408;53.952;27.612;2023-03-21T06:23:31;22.5;18.8;13.8
53698;PMS7003;68408;53.952;27.612;2023-03-21T06:28:55;23;19.8;14.6
53698;PMS7003;68408;53.952;27.612;2023-03-21T06:34:25;23.2;19.8;14.4
53698;PMS7003;68408;53.952;27.612;2023-03-21T06:38:39;22.4;17.6;12.5
53698;PMS7003;68408;53.952;27.612;2023-03-21T06:44:09;19.8;16.4;11.7
53698;PMS7003;68408;53.952;27.612;2023-03-21T06:48:45;20.5;16;11.7
53698;PMS7003;68408;53.952;27.612;2023-03-21T06:54:07;17.4;14;10.3
53698;PMS7003;68408;53.952;27.612;2023-03-21T06:58:55;14.5;11.8;8.4
53698;PMS7003;68408;53.952;27.612;2023-03-21T07:04:07;14.3;12.3;9.3
53698;PMS7003;68408;53.952;27.612;2023-03-21T07:09:25;14.7;11.5;8.4
53698;PMS7003;68408;53.952;27.612;2023-03-21T07:14:25;15;11.7;8.9
53698;PMS7003;68408;53.952;27.612;2023-03-21T07:18:39;12.6;9.5;7.6
53698;PMS7003;68408;53.952;27.612;2023-03-21T07:24:25;13;10.5;8.4
53698;PMS7003;68408;53.952;27.612;2023-03-21T07:29:11;9.9;8;6
53698;PMS7003;68408;53.952;27.612;2023-03-21T07:33:53;9;7.1;5.5
53698;PMS7003;68408;53.952;27.612;2023-03-21T07:38:41;7.3;5.6;4
53698;PMS7003;68408;53.952;27.612;2023-03-21T07:44:25;8.6;7;5.1
53698;PMS7003;68408;53.952;27.612;2023-03-21T07:48:39;7.3;5.5;4.4
53698;PMS7003;68408;53.952;27.612;2023-03-21T07:53:51;4.9;4;3.1
53698;PMS7003;68408;53.952;27.612;2023-03-21T07:59:25;7.7;5.7;4.4
53698;PMS7003;68408;53.952;27.612;2023-03-21T08:03:31;8.9;6.9;5.3
53698;PMS7003;68408;53.952;27.612;2023-03-21T08:08:55;9.6;7.8;6
53698;PMS7003;68408;53.952;27.612;2023-03-21T08:13:53;6.3;4.8;4
53698;PMS7003;68408;53.952;27.612;2023-03-21T08:19:07;7.4;5.9;4.7
53698;PMS7003;68408;53.952;27.612;2023-03-21T08:24:11;5.8;4.5;4
53698;PMS7003;68408;53.952;27.612;2023-03-21T08:28:53;4.5;3.8;3.2
53698;PMS7003;68408;53.952;27.612;2023-03-21T08:33:49;6;4.6;3.6
53698;PMS7003;68408;53.952;27.612;2023-03-21T08:38:57;6.4;4.6;3.6
53698;PMS7003;68408;53.952;27.612;2023-03-21T08:44:25;6.6;5;4.1
53698;PMS7003;68408;53.952;27.612;2023-03-21T08:48:51;6.4;4.6;3.7
53698;PMS7003;68408;53.952;27.612;2023-03-21T08:53:39;7.3;5.4;4.1
53698;PMS7003;68408;53.952;27.612;2023-03-21T08:58:39;7.8;5.8;4.7
53698;PMS7003;68408;53.952;27.612;2023-03-21T09:04:25;7.9;6.5;4.5
53698;PMS7003;68408;53.952;27.612;2023-03-21T09:08:31;5.2;4.1;3.5
53698;PMS7003;68408;53.952;27.612;2023-03-21T09:13:39;4.7;3.1;2.3
53698;PMS7003;68408;53.952;27.612;2023-03-21T09:19:09;3.6;2.9;2.4
53698;PMS7003;68408;53.952;27.612;2023-03-21T09:24:07;3.7;2.9;2.4
53698;PMS7003;68408;53.952;27.612;2023-03-21T09:28:57;3.6;2.7;2.3
53698;PMS7003;68408;53.952;27.612;2023-03-21T09:34:09;2.9;2.5;2.3
53698;PMS7003;68408;53.952;27.612;2023-03-21T09:39:25;3.1;2.5;2.1
53698;PMS7003;68408;53.952;27.612;2023-03-21T09:43:42;3.1;2.6;2.2
53698;PMS7003;68408;53.952;27.612;2023-03-21T09:49:10;2.5;2.1;1.7
53698;PMS7003;68408;53.952;27.612;2023-03-21T09:54:12;3.6;2.5;2.1
53698;PMS7003;68408;53.952;27.612;2023-03-21T09:58:42;3.3;2.7;2.4
53698;PMS7003;68408;53.952;27.612;2023-03-21T10:03:55;3.9;2.6;2.3
53698;PMS7003;68408;53.952;27.612;2023-03-21T10:09:12;3.8;2.9;2.3
53698;PMS7003;68408;53.952;27.612;2023-03-21T10:14:24;3.3;2.6;2.1
53698;PMS7003;68408;53.952;27.612;2023-03-21T10:19:26;3.9;2.9;2.4
53698;PMS7003;68408;53.952;27.612;2023-03-21T10:23:31;4.2;3.1;2.6
53698;PMS7003;68408;53.952;27.612;2023-03-21T10:29:26;4.2;3.2;2.4
53698;PMS7003;68408;53.952;27.612;2023-03-21T10:34:14;3.9;2.8;2.5
53698;PMS7003;68408;53.952;27.612;2023-03-21T10:38:31;4.1;2.8;2.3
53698;PMS7003;68408;53.952;27.612;2023-03-21T10:44:02;4.9;3.7;3
53698;PMS7003;68408;53.952;27.612;2023-03-21T10:49:25;4.5;3.8;3.2
53698;PMS7003;68408;53.952;27.612;2023-03-21T10:53:32;4.9;4.4;3.3
53698;PMS7003;68408;53.952;27.612;2023-03-21T10:58:44;6.9;4.6;4
53698;PMS7003;68408;53.952;27.612;2023-03-21T11:04:27;5.8;5;4
53698;PMS7003;68408;53.952;27.612;2023-03-21T11:09:41;6.4;4.7;3.6
53698;PMS7003;68408;53.952;27.612;2023-03-21T11:13:58;5.7;4.5;3.7
53698;PMS7003;68408;53.952;27.612;2023-03-21T11:18:48;5.5;4.3;3.6
53698;PMS7003;68408;53.952;27.612;2023-03-21T11:23:51;5.6;4.3;3.3
53698;PMS7003;68408;53.952;27.612;2023-03-21T11:29:16;5.9;4.7;3.6
53698;PMS7003;68408;53.952;27.612;2023-03-21T11:33:54;5.6;4.6;3.8
53698;PMS7003;68408;53.952;27.612;2023-03-21T11:39:23;5.6;4.1;3.3
53698;PMS7003;68408;53.952;27.612;2023-03-21T11:44:28;4.2;3.3;2.7
53698;PMS7003;68408;53.952;27.612;2023-03-21T11:49:25;5.5;3.9;3
53698;PMS7003;68408;53.952;27.612;2023-03-21T11:53:43;5.7;4.5;3.5
53698;PMS7003;68408;53.952;27.612;2023-03-21T11:59:00;7.6;6.7;5.1
53698;PMS7003;68408;53.952;27.612;2023-03-21T12:04:45;9.4;7.4;5.6
53698;PMS7003;68408;53.952;27.612;2023-03-21T12:09:28;7.5;5.4;4.3
53698;PMS7003;68408;53.952;27.612;2023-03-21T12:13:57;6.3;5;3.7
53698;PMS7003;68408;53.952;27.612;2023-03-21T12:18:44;5.4;4.4;3.5
53698;PMS7003;68408;53.952;27.612;2023-03-21T12:24:26;5.2;3.9;3.2
53698;PMS7003;68408;53.952;27.612;2023-03-21T12:28:41;5.5;3.9;3.3
53698;PMS7003;68408;53.952;27.612;2023-03-21T12:33:55;4.9;4.2;3.5
53698;PMS7003;68408;53.952;27.612;2023-03-21T12:39:11;4.5;3.7;3.1
53698;PMS7003;68408;53.952;27.612;2023-03-21T12:44:25;5;3.8;3.1
53698;PMS7003;68408;53.952;27.612;2023-03-21T12:49:12;4.1;3.4;2.8
53698;PMS7003;68408;53.952;27.612;2023-03-21T12:54:26;3.9;3.2;2.7
53698;PMS7003;68408;53.952;27.612;2023-03-21T12:59:12;3.9;2.6;2.1
53698;PMS7003;68408;53.952;27.612;2023-03-21T13:04:04;3.7;3.1;2.5
53698;PMS7003;68408;53.952;27.612;2023-03-21T13:08:32;4.5;3.2;2.7
53698;PMS7003;68408;53.952;27.612;2023-03-21T13:14:10;3.6;2.8;2.2
53698;PMS7003;68408;53.952;27.612;2023-03-21T13:19:27;3.3;2.6;2.2
53698;PMS7003;68408;53.952;27.612;2023-03-21T13:24:27;4.6;2.9;2.4
53698;PMS7003;68408;53.952;27.612;2023-03-21T13:28:33;3.2;2.4;1.8
53698;PMS7003;68408;53.952;27.612;2023-03-21T13:34:25;4.3;2.7;2.3
53698;PMS7003;68408;53.952;27.612;2023-03-21T13:39:15;4.3;3.5;2.7
53698;PMS7003;68408;53.952;27.612;2023-03-21T13:44:15;3;2.3;1.8
53698;PMS7003;68408;53.952;27.612;2023-03-21T13:48:54;4.3;3.4;2.9
53698;PMS7003;68408;53.952;27.612;2023-03-21T13:54:30;3.4;2.8;2.2
53698;PMS7003;68408;53.952;27.612;2023-03-21T13:58:49;2.5;2.1;1.7
53698;PMS7003;68408;53.952;27.612;2023-03-21T14:04:28;3.9;3.3;2.8
53698;PMS7003;68408;53.952;27.612;2023-03-21T14:09:28;6.7;4.9;4
53698;PMS7003;68408;53.952;27.612;2023-03-21T14:13:41;4.6;4;3.3
53698;PMS7003;68408;53.952;27.612;2023-03-21T14:18:42;3.8;3.1;2.5
53698;PMS7003;68408;53.952;27.612;2023-03-21T14:23:31;5.6;3.4;2.9
53698;PMS7003;68408;53.952;27.612;2023-03-21T14:28:44;4.4;3.5;2.8
53698;PMS7003;68408;53.952;27.612;2023-03-21T14:34:11;4.3;3;2.5
53698;PMS7003;68408;53.952;27.612;2023-03-21T14:38:56;3.8;3.3;2.7
53698;PMS7003;68408;53.952;27.612;2023-03-21T14:43:41;4.2;3.2;2.6
53698;PMS7003;68408;53.952;27.612;2023-03-21T14:49:10;4.7;3.7;2.8
53698;PMS7003;68408;53.952;27.612;2023-03-21T14:54:25;4.5;3.3;2.7
53698;PMS7003;68408;53.952;27.612;2023-03-21T14:58:31;3;2;1.8
53698;PMS7003;68408;53.952;27.612;2023-03-21T15:03:53;3.8;3.3;2.7
53698;PMS7003;68408;53.952;27.612;2023-03-21T15:08:53;4.6;3.3;2.7
53698;PMS7003;68408;53.952;27.612;2023-03-21T15:14:28;3.8;3.2;2.9
53698;PMS7003;68408;53.952;27.612;2023-03-21T15:18:58;4.7;3.3;2.8
53698;PMS7003;68408;53.952;27.612;2023-03-21T15:23:32;3.7;3;2.3
53698;PMS7003;68408;53.952;27.612;2023-03-21T15:29:27;4.3;3.2;2.7
53698;PMS7003;68408;53.952;27.612;2023-03-21T15:33:31;4.7;3;2.6
53698;PMS7003;68408;53.952;27.612;2023-03-21T15:38:41;3.9;3;2.5
53698;PMS7003;68408;53.952;27.612;2023-03-21T15:43:36;3.7;3.1;2.6
53698;PMS7003;68408;53.952;27.612;2023-03-21T15:49:26;4.2;3.4;2.8
53698;PMS7003;68408;53.952;27.612;2023-03-21T15:53:42;5.6;4;3
53698;PMS7003;68408;53.952;27.612;2023-03-21T15:59:29;7.4;5.6;4.4
53698;PMS7003;68408;53.952;27.612;2023-03-21T16:04:27;4;3.1;2.6
53698;PMS7003;68408;53.952;27.612;2023-03-21T16:08:32;4.5;3.4;3
53698;PMS7003;68408;53.952;27.612;2023-03-21T16:13:57;5;3.4;3
53698;PMS7003;68408;53.952;27.612;2023-03-21T16:19:10;2.8;2.5;2.1
53698;PMS7003;68408;53.952;27.612;2023-03-21T16:23:56;3.8;2.4;2
53698;PMS7003;68408;53.952;27.612;2023-03-21T16:28:59;2.7;2;1.7
53698;PMS7003;68408;53.952;27.612;2023-03-21T16:33:55;7.1;6.3;5.2
53698;PMS7003;68408;53.952;27.612;2023-03-21T16:39:27;2.9;2.2;1.8
53698;PMS7003;68408;53.952;27.612;2023-03-21T16:44:28;3.5;2.2;1.9
53698;PMS7003;68408;53.952;27.612;2023-03-21T16:49:27;2.8;2.1;1.7
53698;PMS7003;68408;53.952;27.612;2023-03-21T16:53:41;2.5;2;1.5
53698;PMS7003;68408;53.952;27.612;2023-03-21T16:59:27;2.5;1.5;1.2
53698;PMS7003;68408;53.952;27.612;2023-03-21T17:03:31;5.4;3.6;2.7
53698;PMS7003;68408;53.952;27.612;2023-03-21T17:09:10;2.5;1.8;1.5
53698;PMS7003;68408;53.952;27.612;2023-03-21T17:14:27;2;1.6;1.4
53698;PMS7003;68408;53.952;27.612;2023-03-21T17:18:48;2.3;1.6;1.4
53698;PMS7003;68408;53.952;27.612;2023-03-21T17:24:23;2.3;1.5;1.3
53698;PMS7003;68408;53.952;27.612;2023-03-21T17:28:32;3.1;1.9;1.5
53698;PMS7003;68408;53.952;27.612;2023-03-21T17:33:31;2.7;1.8;1.5
53698;PMS7003;68408;53.952;27.612;2023-03-21T17:39:14;2.1;1.5;1.3
53698;PMS7003;68408;53.952;27.612;2023-03-21T17:43:55;2;1.5;1.3
53698;PMS7003;68408;53.952;27.612;2023-03-21T17:48:54;2.5;1.7;1.5
53698;PMS7003;68408;53.952;27.612;2023-03-21T17:54:11;4;3;2.5
53698;PMS7003;68408;53.952;27.612;2023-03-21T17:59:27;2;1.3;1
53698;PMS7003;68408;53.952;27.612;2023-03-21T18:03:50;3.4;2.3;1.8
53698;PMS7003;68408;53.952;27.612;2023-03-21T18:08:57;3.5;2.3;1.9
53698;PMS7003;68408;53.952;27.612;2023-03-21T18:13:31;4;3;2.5
53698;PMS7003;68408;53.952;27.612;2023-03-21T18:19:27;5.2;3.4;2.8
53698;PMS7003;68408;53.952;27.612;2023-03-21T18:23:57;4.5;3.4;2.8
53698;PMS7003;68408;53.952;27.612;2023-03-21T18:28:41;6.7;5.4;4.3
53698;PMS7003;68408;53.952;27.612;2023-03-21T18:34:25;5.1;4.4;3.5
53698;PMS7003;68408;53.952;27.612;2023-03-21T18:39:27;5.6;4.3;3.4
53698;PMS7003;68408;53.952;27.612;2023-03-21T18:43:41;4.7;3.1;2.6
53698;PMS7003;68408;53.952;27.612;2023-03-21T18:48:53;4.1;2.8;2.5
53698;PMS7003;68408;53.952;27.612;2023-03-21T18:54:28;4.5;3.4;2.8
53698;PMS7003;68408;53.952;27.612;2023-03-21T18:58:31;6.4;4.8;3.9
53698;PMS7003;68408;53.952;27.612;2023-03-21T19:04:28;6.2;5;4
53698;PMS7003;68408;53.952;27.612;2023-03-21T19:09:27;5.5;4.4;3.4
53698;PMS7003;68408;53.952;27.612;2023-03-21T19:13:42;7;4.4;3.7
53698;PMS7003;68408;53.952;27.612;2023-03-21T19:18:57;6;4.3;3.5
53698;PMS7003;68408;53.952;27.612;2023-03-21T19:24:09;5.8;4.1;3.4
53698;PMS7003;68408;53.952;27.612;2023-03-21T19:29:12;4.8;3.3;3
53698;PMS7003;68408;53.952;27.612;2023-03-21T19:34:13;5.4;3.6;2.8
53698;PMS7003;68408;53.952;27.612;2023-03-21T19:38:55;4.7;3;2.4
53698;PMS7003;68408;53.952;27.612;2023-03-21T19:44:28;4.2;3.4;2.8
53698;PMS7003;68408;53.952;27.612;2023-03-21T19:49:25;4.1;3;2.3
53698;PMS7003;68408;53.952;27.612;2023-03-21T19:53:32;3.8;2.9;2.4
53698;PMS7003;68408;53.952;27.612;2023-03-21T19:58:42;5.1;3.6;2.8
53698;PMS7003;68408;53.952;27.612;2023-03-21T20:04:26;7.3;5;3.7
53698;PMS7003;68408;53.952;27.612;2023-03-21T20:08:41;7.1;5.4;4.3
53698;PMS7003;68408;53.952;27.612;2023-03-21T20:14:26;3.1;1.8;1.6
53698;PMS7003;68408;53.952;27.612;2023-03-21T20:19:09;3.8;2.7;2.3
53698;PMS7003;68408;53.952;27.612;2023-03-21T20:23:32;3.7;2.7;2.2
53698;PMS7003;68408;53.952;27.612;2023-03-21T20:28:59;3.6;2.6;2.1
53698;PMS7003;68408;53.952;27.612;2023-03-21T20:33:56;4.3;3.3;2.8
53698;PMS7003;68408;53.952;27.612;2023-03-21T20:38:42;9.1;7.6;5.8
53698;PMS7003;68408;53.952;27.612;2023-03-21T20:44:14;4.5;3.5;2.8
53698;PMS7003;68408;53.952;27.612;2023-03-21T20:49:28;3.5;2.3;2
53698;PMS7003;68408;53.952;27.612;2023-03-21T20:53:56;3.1;2.5;1.9
53698;PMS7003;68408;53.952;27.612;2023-03-21T20:59:12;3.6;2.6;2.1
53698;PMS7003;68408;53.952;27.612;2023-03-21T21:03:58;3.8;2.8;2.3
53698;PMS7003;68408;53.952;27.612;2023-03-21T21:09:06;3.6;2.3;2
53698;PMS7003;68408;53.952;27.612;2023-03-21T21:13:42;4.6;2.9;2.5
53698;PMS7003;68408;53.952;27.612;2023-03-21T21:18:40;4.1;2.4;1.9
53698;PMS7003;68408;53.952;27.612;2023-03-21T21:24:18;4.4;2.8;2.4
53698;PMS7003;68408;53.952;27.612;2023-03-21T21:29:10;4.3;3.3;2.8
53698;PMS7003;68408;53.952;27.612;2023-03-21T21:33:48;4.8;3.4;2.8
53698;PMS7003;68408;53.952;27.612;2023-03-21T21:39:18;4.2;3.2;2.6
53698;PMS7003;68408;53.952;27.612;2023-03-21T21:43:50;5.2;3.7;3
53698;PMS7003;68408;53.952;27.612;2023-03-21T21:49:18;5.1;3.8;3
53698;PMS7003;68408;53.952;27.612;2023-03-21T21:54:00;5.5;4.1;3.1
53698;PMS7003;68408;53.952;27.612;2023-03-21T21:58:32;3.3;2.7;2.3
53698;PMS7003;68408;53.952;27.612;2023-03-21T22:04:20;4.3;3;2.4
53698;PMS7003;68408;53.952;27.612;2023-03-21T22:08:32;3.7;3.1;2.5
53698;PMS7003;68408;53.952;27.612;2023-03-21T22:14:20;3.8;3;2.6
53698;PMS7003;68408;53.952;27.612;2023-03-21T22:19:10;4.6;3.2;2.6
53698;PMS7003;68408;53.952;27.612;2023-03-21T22:23:32;3.9;3.1;2.5
53698;PMS7003;68408;53.952;27.612;2023-03-21T22:29:18;3;2.4;1.9
53698;PMS7003;68408;53.952;27.612;2023-03-21T22:33:42;4.4;3.1;2.7
53698;PMS7003;68408;53.952;27.612;2023-03-21T22:39:20;3.7;2.8;2.3
53698;PMS7003;68408;53.952;27.612;2023-03-21T22:44:12;4.9;3.5;2.8
53698;PMS7003;68408;53.952;27.612;2023-03-21T22:48:38;3.7;3.3;2.6
53698;PMS7003;68408;53.952;27.612;2023-03-21T22:54:18;4.4;3.2;2.7
53698;PMS7003;68408;53.952;27.612;2023-03-21T22:58:58;3.4;2.8;2.3
53698;PMS7003;68408;53.952;27.612;2023-03-21T23:04:18;2.8;2.1;1.7
53698;PMS7003;68408;53.952;27.612;2023-03-21T23:09:10;3.5;2.5;2.1
53698;PMS7003;68408;53.952;27.612;2023-03-21T23:13:32;3.4;2.2;2
53698;PMS7003;68408;53.952;27.612;2023-03-21T23:19:20;3.3;2.3;1.8
53698;PMS7003;68408;53.952;27.612;2023-03-21T23:23:44;3;2.3;2.1
53698;PMS7003;68408;53.952;27.612;2023-03-21T23:29:02;3.3;2;1.6
53698;PMS7003;68408;53.952;27.612;2023-03-21T23:34:08;2.8;2.2;1.7
53698;PMS7003;68408;53.952;27.612;2023-03-21T23:38:54;2.6;2.1;1.8
53698;PMS7003;68408;53.952;27.612;2023-03-21T23:44:12;2.8;2.3;1.9
53698;PMS7003;68408;53.952;27.612;2023-03-21T23:48:42;3.9;2.4;2
53698;PMS7003;68408;53.952;27.612;2023-03-21T23:54:20;2.3;1.9;1.6
53698;PMS7003;68408;53.952;27.612;2023-03-21T23:59:12;3.5;2.1;1.8
